sensor_id;sensor_type;location;lat;lon;timestamp;P1;durP1;ratioP1;P2;durP2;ratioP2
37753;SDS011;23596;52.520;13.464;2023-01-01T00:00:46;106.43;;;48.63;;
37753;SDS011;23596;52.520;13.464;2023-01-01T00:03:12;77.97;;;34.93;;
37753;SDS011;23596;52.520;13.464;2023-01-01T00:05:38;79.78;;;35.40;;
37753;SDS011;23596;52.520;13.464;2023-01-01T00:08:04;109.70;;;39.63;;
37753;SDS011;23596;52.520;13.464;2023-01-01T00:10:30;77.80;;;31.10;;
37753;SDS011;23596;52.520;13.464;2023-01-01T00:12:56;59.87;;;26.20;;
37753;SDS011;23596;52.520;13.464;2023-01-01T00:15:22;59.77;;;27.77;;
37753;SDS011;23596;52.520;13.464;2023-01-01T00:17:48;67.20;;;34.38;;
37753;SDS011;23596;52.520;13.464;2023-01-01T00:20:14;183.63;;;78.28;;
37753;SDS011;23596;52.520;13.464;2023-01-01T00:22:39;61.57;;;30.00;;
37753;SDS011;23596;52.520;13.464;2023-01-01T00:25:06;66.15;;;31.00;;
37753;SDS011;23596;52.520;13.464;2023-01-01T00:27:32;57.10;;;23.60;;
37753;SDS011;23596;52.520;13.464;2023-01-01T00:29:58;55.90;;;24.93;;
37753;SDS011;23596;52.520;13.464;2023-01-01T00:32:23;44.20;;;17.80;;
37753;SDS011;23596;52.520;13.464;2023-01-01T00:34:49;24.90;;;10.57;;
37753;SDS011;23596;52.520;13.464;2023-01-01T00:37:15;30.20;;;10.63;;
37753;SDS011;23596;52.520;13.464;2023-01-01T00:39:42;28.67;;;10.73;;
37753;SDS011;23596;52.520;13.464;2023-01-01T00:42:08;35.67;;;9.70;;
37753;SDS011;23596;52.520;13.464;2023-01-01T00:44:34;33.50;;;8.63;;
37753;SDS011;23596;52.520;13.464;2023-01-01T00:46:59;25.10;;;6.83;;
37753;SDS011;23596;52.520;13.464;2023-01-01T00:49:25;26.30;;;7.77;;
37753;SDS011;23596;52.520;13.464;2023-01-01T00:51:51;25.23;;;9.48;;
37753;SDS011;23596;52.520;13.464;2023-01-01T00:54:17;40.63;;;12.17;;
37753;SDS011;23596;52.520;13.464;2023-01-01T00:56:43;29.47;;;8.10;;
37753;SDS011;23596;52.520;13.464;2023-01-01T00:59:09;14.63;;;6.40;;
37753;SDS011;23596;52.520;13.464;2023-01-01T01:01:34;24.65;;;7.47;;
37753;SDS011;23596;52.520;13.464;2023-01-01T01:04:03;26.80;;;8.97;;
37753;SDS011;23596;52.520;13.464;2023-01-01T01:06:29;28.55;;;7.32;;
37753;SDS011;23596;52.520;13.464;2023-01-01T01:08:54;15.23;;;6.03;;
37753;SDS011;23596;52.520;13.464;2023-01-01T01:11:21;17.90;;;6.33;;
37753;SDS011;23596;52.520;13.464;2023-01-01T01:13:50;13.38;;;5.28;;
37753;SDS011;23596;52.520;13.464;2023-01-01T01:18:52;19.23;;;6.63;;
37753;SDS011;23596;52.520;13.464;2023-01-01T01:21:20;23.30;;;6.30;;
37753;SDS011;23596;52.520;13.464;2023-01-01T01:23:46;19.63;;;5.55;;
37753;SDS011;23596;52.520;13.464;2023-01-01T01:26:16;22.40;;;6.03;;
37753;SDS011;23596;52.520;13.464;2023-01-01T01:28:44;21.42;;;6.65;;
37753;SDS011;23596;52.520;13.464;2023-01-01T01:31:10;28.77;;;7.67;;
37753;SDS011;23596;52.520;13.464;2023-01-01T01:33:36;21.70;;;5.23;;
37753;SDS011;23596;52.520;13.464;2023-01-01T01:36:02;29.57;;;8.87;;
37753;SDS011;23596;52.520;13.464;2023-01-01T01:40:54;28.55;;;8.63;;
37753;SDS011;23596;52.520;13.464;2023-01-01T01:44:05;11.73;;;6.13;;
37753;SDS011;23596;52.520;13.464;2023-01-01T01:48:42;25.40;;;6.32;;
37753;SDS011;23596;52.520;13.464;2023-01-01T01:51:11;13.00;;;5.28;;
37753;SDS011;23596;52.520;13.464;2023-01-01T01:53:40;23.42;;;5.90;;
37753;SDS011;23596;52.520;13.464;2023-01-01T01:56:12;14.55;;;5.38;;
37753;SDS011;23596;52.520;13.464;2023-01-01T01:58:42;17.67;;;5.05;;
37753;SDS011;23596;52.520;13.464;2023-01-01T02:01:08;24.03;;;5.60;;
37753;SDS011;23596;52.520;13.464;2023-01-01T02:06:18;24.00;;;5.47;;
37753;SDS011;23596;52.520;13.464;2023-01-01T02:08:44;18.25;;;5.10;;
37753;SDS011;23596;52.520;13.464;2023-01-01T02:11:10;15.57;;;4.97;;
37753;SDS011;23596;52.520;13.464;2023-01-01T02:13:36;18.73;;;4.37;;
37753;SDS011;23596;52.520;13.464;2023-01-01T02:18:38;15.07;;;5.82;;
37753;SDS011;23596;52.520;13.464;2023-01-01T02:21:12;21.00;;;5.20;;
37753;SDS011;23596;52.520;13.464;2023-01-01T02:24:04;17.92;;;5.25;;
37753;SDS011;23596;52.520;13.464;2023-01-01T02:26:58;18.20;;;5.10;;
37753;SDS011;23596;52.520;13.464;2023-01-01T02:30:03;20.38;;;6.00;;
37753;SDS011;23596;52.520;13.464;2023-01-01T02:35:07;22.40;;;5.45;;
37753;SDS011;23596;52.520;13.464;2023-01-01T02:38:04;15.90;;;6.53;;
37753;SDS011;23596;52.520;13.464;2023-01-01T02:40:30;16.98;;;7.28;;
37753;SDS011;23596;52.520;13.464;2023-01-01T02:42:57;25.73;;;6.97;;
37753;SDS011;23596;52.520;13.464;2023-01-01T02:45:23;16.80;;;7.93;;
37753;SDS011;23596;52.520;13.464;2023-01-01T02:47:48;15.67;;;6.73;;
37753;SDS011;23596;52.520;13.464;2023-01-01T02:50:15;21.53;;;6.53;;
37753;SDS011;23596;52.520;13.464;2023-01-01T02:58:38;24.08;;;6.47;;
37753;SDS011;23596;52.520;13.464;2023-01-01T03:01:44;17.73;;;6.18;;
37753;SDS011;23596;52.520;13.464;2023-01-01T03:04:30;22.85;;;6.22;;
37753;SDS011;23596;52.520;13.464;2023-01-01T03:07:16;32.88;;;10.60;;
37753;SDS011;23596;52.520;13.464;2023-01-01T03:09:56;13.75;;;6.13;;
37753;SDS011;23596;52.520;13.464;2023-01-01T03:12:31;23.45;;;5.97;;
37753;SDS011;23596;52.520;13.464;2023-01-01T03:18:07;23.23;;;5.68;;
37753;SDS011;23596;52.520;13.464;2023-01-01T03:20:43;14.35;;;5.47;;
37753;SDS011;23596;52.520;13.464;2023-01-01T03:23:15;13.77;;;5.00;;
37753;SDS011;23596;52.520;13.464;2023-01-01T03:25:46;20.60;;;5.30;;
37753;SDS011;23596;52.520;13.464;2023-01-01T03:28:16;17.23;;;5.63;;
37753;SDS011;23596;52.520;13.464;2023-01-01T03:30:46;10.55;;;4.75;;
37753;SDS011;23596;52.520;13.464;2023-01-01T03:33:16;21.80;;;4.88;;
37753;SDS011;23596;52.520;13.464;2023-01-01T03:35:54;13.85;;;4.57;;
37753;SDS011;23596;52.520;13.464;2023-01-01T03:41:29;14.23;;;4.80;;
37753;SDS011;23596;52.520;13.464;2023-01-01T03:44:11;16.10;;;5.00;;
37753;SDS011;23596;52.520;13.464;2023-01-01T03:46:43;26.92;;;5.60;;
37753;SDS011;23596;52.520;13.464;2023-01-01T03:49:10;20.60;;;5.63;;
37753;SDS011;23596;52.520;13.464;2023-01-01T04:04:58;19.73;;;5.47;;
37753;SDS011;23596;52.520;13.464;2023-01-01T04:07:27;22.23;;;5.95;;
37753;SDS011;23596;52.520;13.464;2023-01-01T04:09:54;18.92;;;5.55;;
37753;SDS011;23596;52.520;13.464;2023-01-01T04:12:24;16.48;;;5.25;;
37753;SDS011;23596;52.520;13.464;2023-01-01T04:14:50;18.70;;;6.03;;
37753;SDS011;23596;52.520;13.464;2023-01-01T04:17:16;14.63;;;5.15;;
37753;SDS011;23596;52.520;13.464;2023-01-01T04:19:41;25.07;;;5.97;;
37753;SDS011;23596;52.520;13.464;2023-01-01T04:22:07;9.53;;;4.77;;
37753;SDS011;23596;52.520;13.464;2023-01-01T04:24:32;27.77;;;5.47;;
37753;SDS011;23596;52.520;13.464;2023-01-01T04:26:58;14.37;;;5.77;;
37753;SDS011;23596;52.520;13.464;2023-01-01T04:29:24;20.63;;;5.38;;
37753;SDS011;23596;52.520;13.464;2023-01-01T04:31:49;20.87;;;5.90;;
37753;SDS011;23596;52.520;13.464;2023-01-01T04:34:15;29.27;;;5.83;;
37753;SDS011;23596;52.520;13.464;2023-01-01T04:36:41;26.15;;;6.28;;
37753;SDS011;23596;52.520;13.464;2023-01-01T04:39:07;17.97;;;6.47;;
37753;SDS011;23596;52.520;13.464;2023-01-01T04:41:33;25.43;;;6.93;;
37753;SDS011;23596;52.520;13.464;2023-01-01T04:43:58;20.93;;;6.20;;
37753;SDS011;23596;52.520;13.464;2023-01-01T04:46:24;18.43;;;6.07;;
37753;SDS011;23596;52.520;13.464;2023-01-01T04:48:50;19.13;;;6.37;;
37753;SDS011;23596;52.520;13.464;2023-01-01T04:51:16;19.00;;;6.83;;
37753;SDS011;23596;52.520;13.464;2023-01-01T04:53:43;14.57;;;5.47;;
37753;SDS011;23596;52.520;13.464;2023-01-01T04:56:16;16.90;;;6.33;;
37753;SDS011;23596;52.520;13.464;2023-01-01T04:58:44;13.40;;;4.57;;
37753;SDS011;23596;52.520;13.464;2023-01-01T05:01:18;22.42;;;5.03;;
37753;SDS011;23596;52.520;13.464;2023-01-01T05:03:45;22.35;;;5.35;;
37753;SDS011;23596;52.520;13.464;2023-01-01T05:06:11;17.45;;;5.43;;
37753;SDS011;23596;52.520;13.464;2023-01-01T05:08:38;22.33;;;7.53;;
37753;SDS011;23596;52.520;13.464;2023-01-01T05:11:06;13.95;;;6.05;;
37753;SDS011;23596;52.520;13.464;2023-01-01T05:13:37;21.48;;;8.13;;
37753;SDS011;23596;52.520;13.464;2023-01-01T05:16:04;13.73;;;5.25;;
37753;SDS011;23596;52.520;13.464;2023-01-01T05:18:31;25.45;;;8.60;;
37753;SDS011;23596;52.520;13.464;2023-01-01T05:20:59;42.38;;;17.00;;
37753;SDS011;23596;52.520;13.464;2023-01-01T05:23:30;20.55;;;6.40;;
37753;SDS011;23596;52.520;13.464;2023-01-01T05:25:56;28.05;;;10.30;;
37753;SDS011;23596;52.520;13.464;2023-01-01T05:28:22;21.05;;;7.10;;
37753;SDS011;23596;52.520;13.464;2023-01-01T05:30:49;24.67;;;9.35;;
37753;SDS011;23596;52.520;13.464;2023-01-01T05:33:16;24.05;;;6.70;;
37753;SDS011;23596;52.520;13.464;2023-01-01T05:35:41;14.80;;;5.43;;
37753;SDS011;23596;52.520;13.464;2023-01-01T05:38:07;29.77;;;12.23;;
37753;SDS011;23596;52.520;13.464;2023-01-01T05:40:32;11.55;;;3.88;;
37753;SDS011;23596;52.520;13.464;2023-01-01T05:42:58;42.80;;;17.77;;
37753;SDS011;23596;52.520;13.464;2023-01-01T05:45:24;21.83;;;9.85;;
37753;SDS011;23596;52.520;13.464;2023-01-01T05:47:50;20.37;;;3.97;;
37753;SDS011;23596;52.520;13.464;2023-01-01T05:50:16;20.47;;;5.03;;
37753;SDS011;23596;52.520;13.464;2023-01-01T05:52:41;18.60;;;5.10;;
37753;SDS011;23596;52.520;13.464;2023-01-01T05:55:07;10.63;;;3.97;;
37753;SDS011;23596;52.520;13.464;2023-01-01T05:57:32;15.80;;;3.90;;
37753;SDS011;23596;52.520;13.464;2023-01-01T05:59:58;18.90;;;5.90;;
37753;SDS011;23596;52.520;13.464;2023-01-01T06:02:24;16.87;;;3.73;;
37753;SDS011;23596;52.520;13.464;2023-01-01T06:04:49;17.07;;;4.97;;
37753;SDS011;23596;52.520;13.464;2023-01-01T06:07:15;10.97;;;3.20;;
37753;SDS011;23596;52.520;13.464;2023-01-01T06:09:40;12.87;;;4.10;;
37753;SDS011;23596;52.520;13.464;2023-01-01T06:12:07;15.65;;;3.15;;
37753;SDS011;23596;52.520;13.464;2023-01-01T06:14:32;14.20;;;3.53;;
37753;SDS011;23596;52.520;13.464;2023-01-01T06:16:58;12.67;;;3.97;;
37753;SDS011;23596;52.520;13.464;2023-01-01T06:19:23;14.05;;;3.58;;
37753;SDS011;23596;52.520;13.464;2023-01-01T06:21:49;10.47;;;2.90;;
37753;SDS011;23596;52.520;13.464;2023-01-01T06:24:14;10.30;;;3.23;;
37753;SDS011;23596;52.520;13.464;2023-01-01T06:26:40;12.03;;;4.10;;
37753;SDS011;23596;52.520;13.464;2023-01-01T06:29:06;19.20;;;3.67;;
37753;SDS011;23596;52.520;13.464;2023-01-01T06:31:31;11.17;;;3.20;;
37753;SDS011;23596;52.520;13.464;2023-01-01T06:33:57;17.40;;;3.67;;
37753;SDS011;23596;52.520;13.464;2023-01-01T06:36:23;13.60;;;3.50;;
37753;SDS011;23596;52.520;13.464;2023-01-01T06:38:51;14.32;;;4.07;;
37753;SDS011;23596;52.520;13.464;2023-01-01T06:41:20;17.50;;;3.47;;
37753;SDS011;23596;52.520;13.464;2023-01-01T06:43:48;13.25;;;3.17;;
37753;SDS011;23596;52.520;13.464;2023-01-01T06:46:18;13.13;;;3.80;;
37753;SDS011;23596;52.520;13.464;2023-01-01T06:48:44;8.52;;;3.42;;
37753;SDS011;23596;52.520;13.464;2023-01-01T06:51:15;14.52;;;3.88;;
37753;SDS011;23596;52.520;13.464;2023-01-01T06:53:43;13.48;;;3.85;;
37753;SDS011;23596;52.520;13.464;2023-01-01T06:56:09;19.60;;;3.78;;
37753;SDS011;23596;52.520;13.464;2023-01-01T06:58:35;10.90;;;3.50;;
37753;SDS011;23596;52.520;13.464;2023-01-01T07:01:14;21.07;;;4.27;;
37753;SDS011;23596;52.520;13.464;2023-01-01T07:03:42;12.48;;;3.80;;
37753;SDS011;23596;52.520;13.464;2023-01-01T07:06:09;12.48;;;3.70;;
37753;SDS011;23596;52.520;13.464;2023-01-01T07:08:35;14.77;;;3.10;;
37753;SDS011;23596;52.520;13.464;2023-01-01T07:11:01;15.90;;;3.87;;
37753;SDS011;23596;52.520;13.464;2023-01-01T07:13:28;15.60;;;3.88;;
37753;SDS011;23596;52.520;13.464;2023-01-01T07:15:54;19.65;;;4.65;;
37753;SDS011;23596;52.520;13.464;2023-01-01T07:18:21;13.83;;;4.40;;
37753;SDS011;23596;52.520;13.464;2023-01-01T07:20:51;17.75;;;5.18;;
37753;SDS011;23596;52.520;13.464;2023-01-01T07:23:22;14.48;;;3.92;;
37753;SDS011;23596;52.520;13.464;2023-01-01T07:25:48;14.07;;;3.90;;
37753;SDS011;23596;52.520;13.464;2023-01-01T07:28:15;11.35;;;3.80;;
37753;SDS011;23596;52.520;13.464;2023-01-01T07:30:41;11.30;;;4.40;;
37753;SDS011;23596;52.520;13.464;2023-01-01T07:33:10;17.43;;;5.03;;
37753;SDS011;23596;52.520;13.464;2023-01-01T07:35:37;17.02;;;4.80;;
37753;SDS011;23596;52.520;13.464;2023-01-01T07:38:03;11.93;;;3.70;;
37753;SDS011;23596;52.520;13.464;2023-01-01T07:40:28;17.43;;;4.37;;
37753;SDS011;23596;52.520;13.464;2023-01-01T07:42:54;10.47;;;4.07;;
37753;SDS011;23596;52.520;13.464;2023-01-01T07:45:20;21.75;;;4.18;;
37753;SDS011;23596;52.520;13.464;2023-01-01T07:47:49;11.90;;;4.43;;
37753;SDS011;23596;52.520;13.464;2023-01-01T07:50:17;10.85;;;4.43;;
37753;SDS011;23596;52.520;13.464;2023-01-01T07:52:43;9.93;;;3.87;;
37753;SDS011;23596;52.520;13.464;2023-01-01T07:55:13;15.00;;;4.50;;
37753;SDS011;23596;52.520;13.464;2023-01-01T07:57:40;14.70;;;4.97;;
37753;SDS011;23596;52.520;13.464;2023-01-01T08:00:07;12.80;;;4.05;;
37753;SDS011;23596;52.520;13.464;2023-01-01T08:02:34;12.15;;;4.30;;
37753;SDS011;23596;52.520;13.464;2023-01-01T08:04:59;14.50;;;4.20;;
37753;SDS011;23596;52.520;13.464;2023-01-01T08:07:25;22.23;;;5.30;;
37753;SDS011;23596;52.520;13.464;2023-01-01T08:09:51;12.53;;;4.53;;
37753;SDS011;23596;52.520;13.464;2023-01-01T08:12:16;13.13;;;4.33;;
37753;SDS011;23596;52.520;13.464;2023-01-01T08:14:42;19.00;;;4.63;;
37753;SDS011;23596;52.520;13.464;2023-01-01T08:17:07;14.23;;;4.97;;
37753;SDS011;23596;52.520;13.464;2023-01-01T08:19:33;11.20;;;5.30;;
37753;SDS011;23596;52.520;13.464;2023-01-01T08:21:59;22.70;;;4.67;;
37753;SDS011;23596;52.520;13.464;2023-01-01T08:24:24;15.57;;;4.40;;
37753;SDS011;23596;52.520;13.464;2023-01-01T08:26:50;12.10;;;5.27;;
37753;SDS011;23596;52.520;13.464;2023-01-01T08:29:16;13.90;;;5.20;;
37753;SDS011;23596;52.520;13.464;2023-01-01T08:31:42;15.73;;;5.00;;
37753;SDS011;23596;52.520;13.464;2023-01-01T08:34:07;13.90;;;4.60;;
37753;SDS011;23596;52.520;13.464;2023-01-01T08:36:33;15.43;;;5.07;;
37753;SDS011;23596;52.520;13.464;2023-01-01T08:38:59;12.27;;;4.53;;
37753;SDS011;23596;52.520;13.464;2023-01-01T08:41:25;16.63;;;6.00;;
37753;SDS011;23596;52.520;13.464;2023-01-01T08:43:50;14.97;;;4.87;;
37753;SDS011;23596;52.520;13.464;2023-01-01T08:46:16;11.30;;;5.23;;
37753;SDS011;23596;52.520;13.464;2023-01-01T08:48:42;16.93;;;4.73;;
37753;SDS011;23596;52.520;13.464;2023-01-01T08:51:08;18.87;;;4.97;;
37753;SDS011;23596;52.520;13.464;2023-01-01T08:53:34;19.75;;;4.57;;
37753;SDS011;23596;52.520;13.464;2023-01-01T08:56:01;15.03;;;4.57;;
37753;SDS011;23596;52.520;13.464;2023-01-01T08:58:28;18.02;;;4.70;;
37753;SDS011;23596;52.520;13.464;2023-01-01T09:00:54;11.63;;;4.80;;
37753;SDS011;23596;52.520;13.464;2023-01-01T09:03:20;11.87;;;4.50;;
37753;SDS011;23596;52.520;13.464;2023-01-01T09:05:46;16.42;;;4.50;;
37753;SDS011;23596;52.520;13.464;2023-01-01T09:08:12;12.40;;;4.33;;
37753;SDS011;23596;52.520;13.464;2023-01-01T09:10:39;9.73;;;4.45;;
37753;SDS011;23596;52.520;13.464;2023-01-01T09:13:07;11.70;;;4.20;;
37753;SDS011;23596;52.520;13.464;2023-01-01T09:15:34;12.10;;;4.55;;
37753;SDS011;23596;52.520;13.464;2023-01-01T09:17:59;14.10;;;4.43;;
37753;SDS011;23596;52.520;13.464;2023-01-01T09:20:25;13.23;;;5.40;;
37753;SDS011;23596;52.520;13.464;2023-01-01T09:22:50;22.50;;;4.83;;
37753;SDS011;23596;52.520;13.464;2023-01-01T09:25:16;13.80;;;4.53;;
37753;SDS011;23596;52.520;13.464;2023-01-01T09:27:42;10.75;;;4.22;;
37753;SDS011;23596;52.520;13.464;2023-01-01T09:30:08;21.10;;;4.73;;
37753;SDS011;23596;52.520;13.464;2023-01-01T09:32:34;8.25;;;4.03;;
37753;SDS011;23596;52.520;13.464;2023-01-01T09:34:59;15.57;;;4.67;;
37753;SDS011;23596;52.520;13.464;2023-01-01T09:37:25;13.48;;;4.55;;
37753;SDS011;23596;52.520;13.464;2023-01-01T09:39:51;11.77;;;4.07;;
37753;SDS011;23596;52.520;13.464;2023-01-01T09:48:10;14.65;;;4.70;;
37753;SDS011;23596;52.520;13.464;2023-01-01T09:50:40;14.35;;;4.20;;
37753;SDS011;23596;52.520;13.464;2023-01-01T09:56:05;11.80;;;3.90;;
37753;SDS011;23596;52.520;13.464;2023-01-01T09:58:39;18.50;;;3.42;;
37753;SDS011;23596;52.520;13.464;2023-01-01T10:06:38;9.60;;;3.75;;
37753;SDS011;23596;52.520;13.464;2023-01-01T10:09:20;15.43;;;4.07;;
37753;SDS011;23596;52.520;13.464;2023-01-01T10:12:17;8.90;;;3.67;;
37753;SDS011;23596;52.520;13.464;2023-01-01T10:14:46;13.50;;;4.20;;
37753;SDS011;23596;52.520;13.464;2023-01-01T10:17:16;21.58;;;4.20;;
37753;SDS011;23596;52.520;13.464;2023-01-01T10:19:49;12.77;;;3.75;;
37753;SDS011;23596;52.520;13.464;2023-01-01T10:22:19;13.50;;;3.53;;
37753;SDS011;23596;52.520;13.464;2023-01-01T10:24:51;12.00;;;3.38;;
37753;SDS011;23596;52.520;13.464;2023-01-01T10:29:48;11.97;;;3.67;;
37753;SDS011;23596;52.520;13.464;2023-01-01T10:32:17;9.25;;;3.15;;
37753;SDS011;23596;52.520;13.464;2023-01-01T10:34:49;10.00;;;3.20;;
37753;SDS011;23596;52.520;13.464;2023-01-01T10:37:15;13.43;;;3.40;;
37753;SDS011;23596;52.520;13.464;2023-01-01T10:39:41;23.23;;;3.80;;
37753;SDS011;23596;52.520;13.464;2023-01-01T10:42:12;10.98;;;3.00;;
37753;SDS011;23596;52.520;13.464;2023-01-01T10:44:38;8.80;;;3.38;;
37753;SDS011;23596;52.520;13.464;2023-01-01T10:49:54;7.63;;;3.00;;
37753;SDS011;23596;52.520;13.464;2023-01-01T10:52:35;19.67;;;3.42;;
37753;SDS011;23596;52.520;13.464;2023-01-01T10:55:03;13.10;;;3.08;;
37753;SDS011;23596;52.520;13.464;2023-01-01T11:02:34;16.63;;;3.38;;
37753;SDS011;23596;52.520;13.464;2023-01-01T11:05:17;8.18;;;3.38;;
37753;SDS011;23596;52.520;13.464;2023-01-01T11:07:44;13.80;;;3.33;;
37753;SDS011;23596;52.520;13.464;2023-01-01T11:10:20;11.93;;;3.35;;
37753;SDS011;23596;52.520;13.464;2023-01-01T11:12:48;8.63;;;3.50;;
37753;SDS011;23596;52.520;13.464;2023-01-01T11:15:22;9.52;;;2.88;;
37753;SDS011;23596;52.520;13.464;2023-01-01T11:18:03;13.32;;;3.80;;
37753;SDS011;23596;52.520;13.464;2023-01-01T11:20:31;10.68;;;3.63;;
37753;SDS011;23596;52.520;13.464;2023-01-01T11:22:57;11.00;;;3.07;;
37753;SDS011;23596;52.520;13.464;2023-01-01T11:27:51;19.60;;;4.00;;
37753;SDS011;23596;52.520;13.464;2023-01-01T11:30:33;10.48;;;3.30;;
37753;SDS011;23596;52.520;13.464;2023-01-01T11:33:00;11.53;;;2.70;;
37753;SDS011;23596;52.520;13.464;2023-01-01T11:35:27;8.82;;;3.25;;
37753;SDS011;23596;52.520;13.464;2023-01-01T11:37:55;12.63;;;3.03;;
37753;SDS011;23596;52.520;13.464;2023-01-01T11:40:24;10.50;;;2.88;;
37753;SDS011;23596;52.520;13.464;2023-01-01T11:42:56;12.30;;;3.28;;
37753;SDS011;23596;52.520;13.464;2023-01-01T11:45:25;12.73;;;2.83;;
37753;SDS011;23596;52.520;13.464;2023-01-01T11:47:57;16.42;;;3.30;;
37753;SDS011;23596;52.520;13.464;2023-01-01T11:50:26;8.38;;;3.60;;
37753;SDS011;23596;52.520;13.464;2023-01-01T11:53:34;18.30;;;3.05;;
37753;SDS011;23596;52.520;13.464;2023-01-01T12:01:01;14.07;;;2.85;;
37753;SDS011;23596;52.520;13.464;2023-01-01T12:03:56;11.13;;;3.58;;
37753;SDS011;23596;52.520;13.464;2023-01-01T12:06:35;10.90;;;3.35;;
37753;SDS011;23596;52.520;13.464;2023-01-01T12:11:51;8.05;;;2.65;;
37753;SDS011;23596;52.520;13.464;2023-01-01T12:14:34;13.77;;;2.67;;
37753;SDS011;23596;52.520;13.464;2023-01-01T12:17:21;15.95;;;3.08;;
37753;SDS011;23596;52.520;13.464;2023-01-01T12:22:36;10.80;;;2.70;;
37753;SDS011;23596;52.520;13.464;2023-01-01T12:25:02;9.53;;;2.60;;
37753;SDS011;23596;52.520;13.464;2023-01-01T12:28:07;12.18;;;4.07;;
37753;SDS011;23596;52.520;13.464;2023-01-01T12:33:07;8.55;;;3.10;;
37753;SDS011;23596;52.520;13.464;2023-01-01T12:35:52;11.30;;;3.30;;
37753;SDS011;23596;52.520;13.464;2023-01-01T12:51:40;12.73;;;3.05;;
37753;SDS011;23596;52.520;13.464;2023-01-01T12:54:39;18.45;;;3.53;;
37753;SDS011;23596;52.520;13.464;2023-01-01T12:57:39;10.13;;;3.22;;
37753;SDS011;23596;52.520;13.464;2023-01-01T13:00:13;12.20;;;3.53;;
37753;SDS011;23596;52.520;13.464;2023-01-01T13:05:21;9.73;;;3.25;;
37753;SDS011;23596;52.520;13.464;2023-01-01T13:07:55;18.23;;;2.92;;
37753;SDS011;23596;52.520;13.464;2023-01-01T13:10:32;9.07;;;2.97;;
37753;SDS011;23596;52.520;13.464;2023-01-01T13:13:08;6.97;;;2.78;;
37753;SDS011;23596;52.520;13.464;2023-01-01T13:18:05;12.87;;;3.17;;
37753;SDS011;23596;52.520;13.464;2023-01-01T13:20:45;12.00;;;3.60;;
37753;SDS011;23596;52.520;13.464;2023-01-01T13:53:14;16.95;;;3.80;;
37753;SDS011;23596;52.520;13.464;2023-01-01T13:56:20;11.80;;;3.88;;
37753;SDS011;23596;52.520;13.464;2023-01-01T13:59:44;19.55;;;3.13;;
37753;SDS011;23596;52.520;13.464;2023-01-01T14:02:19;9.98;;;3.35;;
37753;SDS011;23596;52.520;13.464;2023-01-01T14:07:34;13.40;;;3.88;;
37753;SDS011;23596;52.520;13.464;2023-01-01T14:12:46;13.52;;;3.83;;
37753;SDS011;23596;52.520;13.464;2023-01-01T14:15:14;16.02;;;4.00;;
37753;SDS011;23596;52.520;13.464;2023-01-01T14:18:00;16.85;;;4.60;;
37753;SDS011;23596;52.520;13.464;2023-01-01T14:20:33;13.02;;;3.60;;
37753;SDS011;23596;52.520;13.464;2023-01-01T14:23:05;18.83;;;3.85;;
37753;SDS011;23596;52.520;13.464;2023-01-01T14:25:34;12.68;;;3.38;;
37753;SDS011;23596;52.520;13.464;2023-01-01T14:28:00;10.83;;;3.80;;
37753;SDS011;23596;52.520;13.464;2023-01-01T14:30:26;9.82;;;3.55;;
37753;SDS011;23596;52.520;13.464;2023-01-01T14:32:56;16.02;;;4.15;;
37753;SDS011;23596;52.520;13.464;2023-01-01T14:35:23;13.77;;;4.40;;
37753;SDS011;23596;52.520;13.464;2023-01-01T14:37:49;10.90;;;4.18;;
37753;SDS011;23596;52.520;13.464;2023-01-01T14:40:20;17.80;;;4.93;;
37753;SDS011;23596;52.520;13.464;2023-01-01T14:42:56;18.55;;;5.85;;
37753;SDS011;23596;52.520;13.464;2023-01-01T14:45:29;14.75;;;4.43;;
37753;SDS011;23596;52.520;13.464;2023-01-01T14:47:56;16.70;;;4.95;;
37753;SDS011;23596;52.520;13.464;2023-01-01T14:52:54;17.38;;;4.80;;
37753;SDS011;23596;52.520;13.464;2023-01-01T14:55:39;14.00;;;4.88;;
37753;SDS011;23596;52.520;13.464;2023-01-01T14:58:09;13.07;;;4.75;;
37753;SDS011;23596;52.520;13.464;2023-01-01T15:00:40;13.23;;;4.50;;
37753;SDS011;23596;52.520;13.464;2023-01-01T15:03:09;16.07;;;4.50;;
37753;SDS011;23596;52.520;13.464;2023-01-01T15:05:43;13.82;;;5.55;;
37753;SDS011;23596;52.520;13.464;2023-01-01T15:08:18;12.48;;;5.07;;
37753;SDS011;23596;52.520;13.464;2023-01-01T15:10:45;18.23;;;4.63;;
37753;SDS011;23596;52.520;13.464;2023-01-01T15:13:15;14.52;;;5.00;;
37753;SDS011;23596;52.520;13.464;2023-01-01T15:15:44;16.77;;;5.72;;
37753;SDS011;23596;52.520;13.464;2023-01-01T15:20:59;16.42;;;5.60;;
37753;SDS011;23596;52.520;13.464;2023-01-01T15:23:30;16.67;;;5.43;;
37753;SDS011;23596;52.520;13.464;2023-01-01T15:25:56;18.93;;;6.17;;
37753;SDS011;23596;52.520;13.464;2023-01-01T15:28:21;28.07;;;13.17;;
37753;SDS011;23596;52.520;13.464;2023-01-01T15:30:51;22.40;;;8.10;;
37753;SDS011;23596;52.520;13.464;2023-01-01T15:33:18;27.65;;;9.13;;
37753;SDS011;23596;52.520;13.464;2023-01-01T15:35:48;30.08;;;7.68;;
37753;SDS011;23596;52.520;13.464;2023-01-01T15:38:23;19.40;;;6.55;;
37753;SDS011;23596;52.520;13.464;2023-01-01T15:40:58;15.63;;;5.50;;
37753;SDS011;23596;52.520;13.464;2023-01-01T15:43:26;17.98;;;6.15;;
37753;SDS011;23596;52.520;13.464;2023-01-01T15:45:55;22.42;;;5.75;;
37753;SDS011;23596;52.520;13.464;2023-01-01T15:48:30;20.33;;;5.78;;
37753;SDS011;23596;52.520;13.464;2023-01-01T15:51:02;21.85;;;7.05;;
37753;SDS011;23596;52.520;13.464;2023-01-01T15:53:36;25.33;;;6.80;;
37753;SDS011;23596;52.520;13.464;2023-01-01T15:56:13;16.30;;;6.18;;
37753;SDS011;23596;52.520;13.464;2023-01-01T16:01:11;20.05;;;6.43;;
37753;SDS011;23596;52.520;13.464;2023-01-01T16:03:39;21.63;;;8.85;;
37753;SDS011;23596;52.520;13.464;2023-01-01T16:06:06;27.10;;;7.50;;
37753;SDS011;23596;52.520;13.464;2023-01-01T16:08:38;30.55;;;8.82;;
37753;SDS011;23596;52.520;13.464;2023-01-01T16:11:04;22.40;;;7.87;;
37753;SDS011;23596;52.520;13.464;2023-01-01T16:13:29;21.48;;;7.38;;
37753;SDS011;23596;52.520;13.464;2023-01-01T16:15:56;27.52;;;8.05;;
37753;SDS011;23596;52.520;13.464;2023-01-01T16:18:33;36.42;;;9.45;;
37753;SDS011;23596;52.520;13.464;2023-01-01T16:21:01;37.25;;;9.70;;
37753;SDS011;23596;52.520;13.464;2023-01-01T16:23:29;23.05;;;7.05;;
37753;SDS011;23596;52.520;13.464;2023-01-01T16:25:54;21.80;;;7.53;;
37753;SDS011;23596;52.520;13.464;2023-01-01T16:28:20;19.13;;;7.73;;
37753;SDS011;23596;52.520;13.464;2023-01-01T16:30:46;17.10;;;5.00;;
37753;SDS011;23596;52.520;13.464;2023-01-01T16:33:13;17.63;;;5.87;;
37753;SDS011;23596;52.520;13.464;2023-01-01T16:35:40;19.98;;;6.00;;
37753;SDS011;23596;52.520;13.464;2023-01-01T16:38:06;12.97;;;5.63;;
37753;SDS011;23596;52.520;13.464;2023-01-01T16:40:32;16.83;;;6.63;;
37753;SDS011;23596;52.520;13.464;2023-01-01T16:42:58;17.05;;;6.72;;
37753;SDS011;23596;52.520;13.464;2023-01-01T16:45:23;20.37;;;6.70;;
37753;SDS011;23596;52.520;13.464;2023-01-01T16:47:49;19.73;;;6.43;;
37753;SDS011;23596;52.520;13.464;2023-01-01T16:50:14;14.93;;;7.00;;
37753;SDS011;23596;52.520;13.464;2023-01-01T16:52:40;20.03;;;6.57;;
37753;SDS011;23596;52.520;13.464;2023-01-01T16:55:06;27.00;;;7.07;;
37753;SDS011;23596;52.520;13.464;2023-01-01T16:57:32;24.43;;;6.57;;